Time;durP1;ratioP1;P1;durP2;ratioP2;P2;SDS_P1;SDS_P2;PMS_P1;PMS_P2;Temp;Humidity;BMP_temperature;BMP_pressure;BME280_temperature;BME280_humidity;BME280_pressure;Samples;Min_cycle;Max_cycle;Signal;HPM_P1;HPM_P2
2022/10/22 00:01:07;;;;;;;;;1.00;1.00;;;;;16.87;66.64;100666.00;5037488;28;45233;-77
2022/10/22 00:03:33;;;;;;;;;1.00;0.00;;;;;16.86;66.23;100665.13;5035902;28;45362;-77
2022/10/22 00:05:58;;;;;;;;;2.00;1.00;;;;;16.84;66.40;100667.00;5036462;28;68084;-77
2022/10/22 00:08:23;;;;;;;;;4.00;1.00;;;;;16.85;66.54;100671.34;5036450;28;75591;-77
2022/10/22 00:10:49;;;;;;;;;3.75;1.00;;;;;16.85;66.44;100681.03;5035981;28;73084;-77
2022/10/22 00:13:14;;;;;;;;;2.75;0.25;;;;;16.84;66.53;100682.78;5036763;28;47066;-77
2022/10/22 00:15:40;;;;;;;;;3.25;1.00;;;;;16.82;67.03;100680.22;5035383;28;62198;-77
2022/10/22 00:18:05;;;;;;;;;2.00;2.00;;;;;16.83;66.49;100687.19;5036118;28;74570;-77
2022/10/22 00:20:30;;;;;;;;;0.00;0.00;;;;;16.81;67.16;100694.28;5037125;28;45293;-77
2022/10/22 00:22:56;;;;;;;;;2.00;0.00;;;;;16.80;67.13;100700.47;5037108;28;45474;-77
2022/10/22 00:25:21;;;;;;;;;1.50;0.50;;;;;16.80;66.72;100708.34;5034904;28;68588;-77
2022/10/22 00:27:46;;;;;;;;;0.50;0.50;;;;;16.82;67.11;100708.28;5034445;28;75491;-77
2022/10/22 00:30:12;;;;;;;;;1.00;1.00;;;;;16.84;67.05;100706.44;5035850;28;73091;-77
2022/10/22 00:32:37;;;;;;;;;0.75;0.00;;;;;16.82;66.95;100709.16;5035862;28;46000;-77
2022/10/22 00:35:03;;;;;;;;;0.50;0.50;;;;;16.81;66.88;100715.31;5035747;28;70851;-77
2022/10/22 00:37:29;;;;;;;;;1.00;0.00;;;;;16.79;67.06;100714.56;5036742;28;46646;-76
2022/10/22 00:39:54;;;;;;;;;2.25;0.00;;;;;16.78;67.12;100715.47;5036610;28;45704;-77
2022/10/22 00:42:22;;;;;;;;;0.75;0.75;;;;;16.79;68.25;100716.31;5036550;28;45448;-77
2022/10/22 00:45:07;;;;;;;;;1.00;0.00;;;;;16.77;67.35;100719.06;5036912;28;45373;-77
2022/10/22 00:47:39;;;;;;;;;1.25;1.00;;;;;16.76;67.10;100719.97;5036616;28;46291;-77
2022/10/22 00:50:08;;;;;;;;;1.00;1.00;;;;;16.74;67.17;100718.38;5035306;28;45339;-77
2022/10/22 00:52:34;;;;;;;;;2.00;0.25;;;;;16.76;66.96;100717.34;5035495;28;45310;-77
2022/10/22 00:55:00;;;;;;;;;0.00;0.00;;;;;16.74;67.68;100734.16;5036641;28;45292;-77
2022/10/22 00:57:26;;;;;;;;;1.00;0.00;;;;;16.72;67.43;100720.25;5034976;28;45418;-77
2022/10/22 00:59:53;;;;;;;;;1.25;1.00;;;;;16.71;67.65;100724.63;5035407;28;45758;-77
2022/10/22 01:02:18;;;;;;;;;0.25;0.00;;;;;16.71;67.29;100732.53;5034987;28;51014;-77
2022/10/22 01:04:44;;;;;;;;;0.00;0.00;;;;;16.69;67.51;100726.50;5035826;28;60273;-77
2022/10/22 01:07:18;;;;;;;;;2.50;0.25;;;;;16.71;67.93;100753.53;5034243;28;73137;-77
2022/10/22 01:09:55;;;;;;;;;1.00;1.00;;;;;16.70;68.03;100748.41;5034977;28;45564;-77
2022/10/22 01:12:54;;;;;;;;;0.25;0.25;;;;;16.67;67.83;100765.16;5036039;28;45482;-77
2022/10/22 01:15:24;;;;;;;;;1.25;1.25;;;;;16.67;67.49;100759.06;5034346;28;45371;-77
2022/10/22 01:18:09;;;;;;;;;1.00;0.00;;;;;16.65;67.27;100762.63;5035105;28;45468;-77
2022/10/22 01:20:51;;;;;;;;;2.50;0.00;;;;;16.64;67.56;100776.69;5035014;28;45376;-77
2022/10/22 01:23:26;;;;;;;;;0.75;0.75;;;;;16.65;67.55;100777.53;5035058;28;45450;-77
2022/10/22 01:26:16;;;;;;;;;3.00;0.00;;;;;16.64;67.81;100783.72;5035980;28;45365;-77
2022/10/22 01:28:44;;;;;;;;;1.50;1.00;;;;;16.64;67.75;100794.22;5036093;28;46178;-77
2022/10/22 01:31:12;;;;;;;;;0.25;0.00;;;;;16.63;67.49;100792.53;5034872;28;45338;-77
2022/10/22 01:33:38;;;;;;;;;4.50;0.25;;;;;16.65;67.37;100790.69;5035995;28;45484;-77
2022/10/22 01:36:03;;;;;;;;;1.75;1.00;;;;;16.64;67.47;100786.34;5034647;28;47275;-77
2022/10/22 01:38:29;;;;;;;;;0.25;0.00;;;;;16.65;67.30;100796.78;5035947;28;46943;-77
2022/10/22 01:40:55;;;;;;;;;1.75;0.00;;;;;16.66;67.21;100792.38;5034390;28;73021;-77
2022/10/22 01:43:20;;;;;;;;;7.25;0.00;;;;;16.65;67.22;100786.25;5034821;28;45392;-77
2022/10/22 01:45:49;;;;;;;;;0.00;0.00;;;;;16.67;67.07;100791.44;5035055;28;69050;-77
2022/10/22 01:48:14;;;;;;;;;2.00;1.00;;;;;16.67;67.57;100785.34;5035602;28;45319;-77
2022/10/22 01:50:59;;;;;;;;;2.00;1.00;;;;;16.66;67.12;100795.03;5035704;28;45248;-77
2022/10/22 01:53:33;;;;;;;;;2.25;0.00;;;;;16.67;67.05;100786.19;5035879;28;45266;-77
2022/10/22 01:56:05;;;;;;;;;0.75;0.75;;;;;16.69;67.21;100781.69;5035798;28;45328;-77
2022/10/22 01:58:56;;;;;;;;;0.00;0.00;;;;;16.72;67.36;100783.31;5035609;28;45559;-77
2022/10/22 02:01:28;;;;;;;;;2.50;0.00;;;;;16.75;67.09;100784.00;5034366;28;46455;-77
2022/10/22 02:04:14;;;;;;;;;0.25;0.00;;;;;16.79;67.18;100790.78;5034608;28;45330;-78
2022/10/22 02:06:42;;;;;;;;;1.00;0.00;;;;;16.78;67.04;100793.50;5034454;28;45302;-77
2022/10/22 02:09:08;;;;;;;;;3.75;0.75;;;;;16.82;66.96;100797.66;5033908;28;46213;-77
2022/10/22 02:11:34;;;;;;;;;0.50;0.50;;;;;16.84;67.01;100793.19;5034362;28;72133;-77
2022/10/22 02:14:02;;;;;;;;;2.00;0.50;;;;;16.85;66.69;100794.91;5033828;28;57846;-77
2022/10/22 02:16:34;;;;;;;;;3.75;0.00;;;;;16.86;67.13;100787.84;5035654;28;45378;-77
2022/10/22 02:19:03;;;;;;;;;0.00;0.00;;;;;16.87;66.95;100792.19;5033879;28;46056;-77
2022/10/22 02:21:29;;;;;;;;;2.75;1.25;;;;;16.90;67.07;100800.78;5034046;28;45300;-77
2022/10/22 02:23:54;;;;;;;;;1.00;0.00;;;;;16.91;66.53;100804.22;5033756;28;45538;-77
2022/10/22 02:26:28;;;;;;;;;2.50;0.00;;;;;16.90;66.59;100799.91;5036379;28;58015;-77
2022/10/22 02:29:02;;;;;;;;;0.00;0.00;;;;;16.88;66.95;100793.88;5037550;28;46534;-77
2022/10/22 02:31:31;;;;;;;;;2.00;0.00;;;;;16.85;67.01;100791.44;5038894;28;45579;-77
2022/10/22 02:34:01;;;;;;;;;0.50;0.00;;;;;16.83;67.02;100792.34;5037626;28;45374;-77
2022/10/22 02:36:27;;;;;;;;;2.00;0.00;;;;;16.82;67.16;100800.28;5037664;28;45460;-78
2022/10/22 02:38:53;;;;;;;;;0.25;0.25;;;;;16.78;67.24;100796.13;5037466;28;72601;-77
2022/10/22 02:41:19;;;;;;;;;1.00;1.00;;;;;16.74;67.26;100802.50;5037272;28;48333;-77
2022/10/22 02:43:49;;;;;;;;;1.50;0.00;;;;;16.68;67.27;100803.66;5037628;28;45351;-77
2022/10/22 02:46:14;;;;;;;;;0.00;0.00;;;;;16.65;67.60;100814.34;5037351;28;45273;-77
2022/10/22 02:48:40;;;;;;;;;0.00;0.00;;;;;16.62;68.27;100820.63;5037225;28;49700;-77
2022/10/22 02:51:05;;;;;;;;;0.00;0.00;;;;;16.61;68.01;100820.69;5037683;28;69384;-77
2022/10/22 02:53:31;;;;;;;;;0.00;0.00;;;;;16.60;68.23;100826.84;5037343;28;67020;-77
2022/10/22 02:55:56;;;;;;;;;1.00;0.00;;;;;16.59;68.13;100828.66;5038585;28;45318;-77
2022/10/22 02:58:21;;;;;;;;;3.00;0.00;;;;;16.62;67.91;100832.88;5037753;28;61983;-77
2022/10/22 03:00:47;;;;;;;;;1.00;1.00;;;;;16.61;68.02;100836.47;5037430;28;72472;-77
2022/10/22 03:03:13;;;;;;;;;0.00;0.00;;;;;16.62;67.99;100835.50;5038547;28;45279;-77
2022/10/22 03:05:38;;;;;;;;;0.00;0.00;;;;;16.62;68.25;100843.41;5037749;28;60408;-77
2022/10/22 03:08:03;;;;;;;;;0.00;0.00;;;;;16.58;68.34;100840.06;5035649;28;74538;-74
2022/10/22 03:10:29;;;;;;;;;0.00;0.00;;;;;16.55;69.07;100844.66;5036991;28;45477;-75
2022/10/22 03:12:55;;;;;;;;;0.00;0.00;;;;;16.56;68.88;100839.31;5037068;28;45348;-74
2022/10/22 03:15:20;;;;;;;;;1.00;0.00;;;;;16.57;68.47;100845.44;5036987;28;45751;-75
2022/10/22 03:17:45;;;;;;;;;0.00;0.00;;;;;16.55;68.81;100852.56;5035853;28;71695;-74
2022/10/22 03:20:11;;;;;;;;;0.00;0.00;;;;;16.53;69.15;100862.25;5036875;28;71075;-75
2022/10/22 03:22:38;;;;;;;;;2.00;0.00;;;;;16.51;68.96;100853.63;5037161;28;63263;-75
2022/10/22 03:25:07;;;;;;;;;0.00;0.00;;;;;16.55;68.75;100865.69;5035969;28;66589;-74
2022/10/22 03:27:32;;;;;;;;;1.00;1.00;;;;;16.56;69.05;100864.75;5036558;28;45661;-75
2022/10/22 03:29:58;;;;;;;;;1.00;0.00;;;;;16.54;68.99;100864.81;5036461;28;50058;-75
2022/10/22 03:32:23;;;;;;;;;1.50;1.00;;;;;16.56;68.87;100862.13;5035838;28;66014;-75
2022/10/22 03:34:49;;;;;;;;;1.00;0.00;;;;;16.59;69.23;100864.59;5036812;28;70592;-74
2022/10/22 03:37:14;;;;;;;;;2.75;0.00;;;;;16.58;69.27;100863.72;5035905;28;73946;-75
2022/10/22 03:39:40;;;;;;;;;0.00;0.00;;;;;16.60;69.26;100874.16;5036165;28;50673;-74
2022/10/22 03:42:06;;;;;;;;;1.00;0.25;;;;;16.60;69.36;100875.03;5035949;28;59782;-74
2022/10/22 03:44:32;;;;;;;;;1.00;0.00;;;;;16.61;69.50;100879.34;5036600;28;45355;-75
2022/10/22 03:46:57;;;;;;;;;2.75;0.00;;;;;16.61;69.17;100881.97;5036231;28;46047;-74
2022/10/22 03:49:22;;;;;;;;;0.25;0.25;;;;;16.62;68.96;100880.19;5036205;28;50052;-75
2022/10/22 03:51:48;;;;;;;;;2.00;0.25;;;;;16.62;69.14;100877.56;5036392;28;65069;-74
2022/10/22 03:54:15;;;;;;;;;1.00;0.25;;;;;16.60;69.48;100880.28;5036464;28;45365;-75
2022/10/22 03:56:40;;;;;;;;;0.00;0.00;;;;;16.59;69.34;100893.50;5037372;28;45466;-74
2022/10/22 03:59:06;;;;;;;;;0.75;0.00;;;;;16.57;70.09;100890.94;5036208;28;45430;-75
2022/10/22 04:01:31;;;;;;;;;2.50;1.00;;;;;16.59;69.53;100896.13;5036717;28;61640;-74
2022/10/22 04:03:57;;;;;;;;;0.00;0.00;;;;;16.60;69.59;100895.19;5037562;28;45246;-75
2022/10/22 04:06:23;;;;;;;;;0.25;0.00;;;;;16.60;69.56;100898.69;5035714;28;46104;-74
2022/10/22 04:08:48;;;;;;;;;0.50;0.50;;;;;16.59;69.87;100896.97;5037344;28;45485;-75
2022/10/22 04:11:14;;;;;;;;;1.75;0.00;;;;;16.58;69.83;100900.50;5036017;28;45336;-75
2022/10/22 04:13:40;;;;;;;;;2.75;1.00;;;;;16.55;69.85;100898.06;5037402;28;45248;-75
2022/10/22 04:16:18;;;;;;;;;2.25;1.00;;;;;16.55;70.31;100902.47;5036167;28;70854;-74
2022/10/22 04:18:44;;;;;;;;;0.00;0.00;;;;;16.58;69.82;100910.19;5035967;28;45941;-76
2022/10/22 04:21:11;;;;;;;;;1.00;0.00;;;;;16.58;70.01;100911.03;5036945;28;45378;-75
2022/10/22 04:23:36;;;;;;;;;1.00;0.50;;;;;16.58;69.96;100913.66;5037214;28;45274;-75
2022/10/22 04:26:06;;;;;;;;;1.00;1.00;;;;;16.59;70.11;100917.16;5036067;28;70330;-74
2022/10/22 04:28:34;;;;;;;;;1.00;0.75;;;;;16.60;70.08;100911.81;5037142;28;45378;-75
2022/10/22 04:31:07;;;;;;;;;1.00;1.00;;;;;16.62;70.15;100912.59;5037041;28;45421;-74
2022/10/22 04:33:32;;;;;;;;;1.50;0.25;;;;;16.64;69.76;100910.72;5036529;28;45512;-77
2022/10/22 04:35:57;;;;;;;;;2.50;0.25;;;;;16.68;69.70;100913.19;5036276;28;63856;-77
2022/10/22 04:38:23;;;;;;;;;4.00;0.75;;;;;16.72;69.66;100912.13;5035439;28;48320;-77
2022/10/22 04:40:48;;;;;;;;;1.50;0.00;;;;;16.72;69.71;100915.59;5035954;28;69379;-77
2022/10/22 04:43:13;;;;;;;;;2.00;1.00;;;;;16.69;69.61;100921.00;5037010;28;45489;-77
2022/10/22 04:45:38;;;;;;;;;0.00;0.00;;;;;16.68;69.87;100929.81;5035983;28;64723;-77
2022/10/22 04:48:04;;;;;;;;;5.00;0.75;;;;;16.68;69.75;100942.09;5035436;28;50140;-77
2022/10/22 04:50:29;;;;;;;;;0.00;0.00;;;;;16.64;70.27;100944.03;5036200;28;45358;-77
2022/10/22 04:52:55;;;;;;;;;5.50;1.00;;;;;16.65;70.14;100948.38;5034411;28;70440;-77
2022/10/22 04:55:20;;;;;;;;;3.00;0.00;;;;;16.63;70.14;100956.31;5035690;28;75557;-77
2022/10/22 04:57:45;;;;;;;;;0.00;0.00;;;;;16.62;70.09;100946.75;5035983;28;59472;-77
2022/10/22 05:00:11;;;;;;;;;1.00;1.00;;;;;16.64;69.70;100952.78;5036541;28;45364;-77
2022/10/22 05:02:36;;;;;;;;;2.50;0.00;;;;;16.66;69.98;100944.81;5036394;28;45337;-77
2022/10/22 05:05:02;;;;;;;;;2.25;0.25;;;;;16.67;69.87;100949.13;5036293;28;46959;-77
2022/10/22 05:07:27;;;;;;;;;4.00;1.00;;;;;16.71;70.28;100944.56;5036354;28;45394;-77
2022/10/22 05:09:53;;;;;;;;;1.00;0.00;;;;;16.76;69.83;100948.66;5035439;28;70321;-77
2022/10/22 05:12:18;;;;;;;;;3.50;1.00;;;;;16.73;69.79;100954.06;5036378;28;45332;-77
2022/10/22 05:14:43;;;;;;;;;6.75;1.00;;;;;16.73;70.16;100948.81;5036290;28;45427;-77
2022/10/22 05:17:09;;;;;;;;;1.00;0.50;;;;;16.76;69.86;100953.91;5035069;28;71980;-77
2022/10/22 05:19:35;;;;;;;;;2.25;1.00;;;;;16.75;70.07;100961.88;5035290;28;62321;-77
2022/10/22 05:22:01;;;;;;;;;2.25;1.00;;;;;16.74;70.04;100954.94;5036124;28;45515;-77
2022/10/22 05:24:28;;;;;;;;;1.00;0.00;;;;;16.75;69.98;100957.50;5036078;28;47291;-77
2022/10/22 05:26:55;;;;;;;;;1.50;1.00;;;;;16.82;70.23;100953.63;5034929;28;45837;-77
2022/10/22 05:29:20;;;;;;;;;1.75;0.50;;;;;16.86;70.06;100951.69;5034953;28;45418;-77
2022/10/22 05:31:46;;;;;;;;;0.25;0.25;;;;;16.87;69.64;100960.44;5035699;28;45540;-77
2022/10/22 05:34:11;;;;;;;;;0.00;0.00;;;;;16.86;69.92;100956.09;5035920;28;45409;-77
2022/10/22 05:36:37;;;;;;;;;3.00;0.00;;;;;16.86;69.98;100954.31;5035774;28;51037;-77
2022/10/22 05:39:03;;;;;;;;;3.25;1.00;;;;;16.88;69.63;100956.88;5036069;28;45394;-77
2022/10/22 05:41:28;;;;;;;;;0.50;0.25;;;;;16.91;70.30;100962.00;5035819;28;45236;-77
2022/10/22 05:43:55;;;;;;;;;0.00;0.00;;;;;16.92;69.62;100967.16;5034653;28;46092;-77
2022/10/22 05:46:22;;;;;;;;;2.25;1.00;;;;;16.89;69.72;100963.84;5035507;28;45720;-77
2022/10/22 05:48:49;;;;;;;;;0.00;0.00;;;;;16.89;69.76;100956.81;5034716;28;45403;-77
2022/10/22 05:51:14;;;;;;;;;0.50;0.25;;;;;16.90;69.95;100976.06;5035788;28;45476;-77
2022/10/22 05:53:41;;;;;;;;;2.00;1.00;;;;;16.94;69.68;100967.09;5034654;28;73129;-77
2022/10/22 05:56:12;;;;;;;;;5.00;1.00;;;;;16.94;69.53;100961.84;5034194;28;45657;-77
2022/10/22 05:58:38;;;;;;;;;2.00;0.00;;;;;16.94;69.85;100967.94;5034752;28;45457;-77
2022/10/22 06:01:05;;;;;;;;;1.00;1.00;;;;;16.93;69.75;100973.28;5034889;28;45548;-77
2022/10/22 06:03:31;;;;;;;;;2.00;1.00;;;;;16.91;69.62;100981.22;5035493;28;46291;-77
2022/10/22 06:05:59;;;;;;;;;0.75;0.75;;;;;16.88;69.71;100978.75;5035654;28;45290;-77
2022/10/22 06:08:25;;;;;;;;;2.00;1.00;;;;;16.85;69.76;100978.94;5034389;28;45331;-77
2022/10/22 06:10:50;;;;;;;;;0.75;0.75;;;;;16.83;70.04;100981.63;5034127;28;49706;-77
2022/10/22 06:13:16;;;;;;;;;3.00;1.25;;;;;16.84;69.86;100982.47;5034332;28;76375;-77
2022/10/22 06:15:41;;;;;;;;;1.00;1.00;;;;;16.84;70.29;100979.84;5035047;28;45403;-76
2022/10/22 06:18:06;;;;;;;;;3.00;2.00;;;;;16.83;69.65;100989.53;5035300;28;45377;-79
2022/10/22 06:20:33;;;;;;;;;1.50;1.00;;;;;16.83;69.93;100991.31;5034760;28;62674;-77
2022/10/22 06:22:59;;;;;;;;;1.75;0.00;;;;;16.81;70.23;100998.41;5033984;28;47619;-77
2022/10/22 06:25:24;;;;;;;;;1.50;0.25;;;;;16.78;70.01;100993.28;5035216;28;45453;-77
2022/10/22 06:27:50;;;;;;;;;1.00;1.00;;;;;16.79;70.05;101002.84;5034600;28;67837;-77
2022/10/22 06:30:16;;;;;;;;;3.00;1.00;;;;;16.80;69.65;100994.03;5034936;28;45429;-77
2022/10/22 06:32:41;;;;;;;;;1.75;1.00;;;;;16.81;70.18;101001.03;5035014;28;46152;-77
2022/10/22 06:35:06;;;;;;;;;1.00;1.00;;;;;16.80;69.89;100996.69;5034132;28;69682;-77
2022/10/22 06:37:32;;;;;;;;;2.50;1.00;;;;;16.78;70.10;101004.63;5035007;28;45872;-76
2022/10/22 06:39:57;;;;;;;;;3.50;1.00;;;;;16.79;70.01;101006.34;5035027;28;45532;-77
2022/10/22 06:42:22;;;;;;;;;1.25;1.00;;;;;16.80;69.99;101015.91;5034449;28;62469;-77
2022/10/22 06:44:48;;;;;;;;;3.75;1.00;;;;;16.83;70.03;101010.56;5034076;28;64093;-77
2022/10/22 06:47:13;;;;;;;;;1.25;0.75;;;;;16.85;70.04;101022.78;5034342;28;68327;-77
2022/10/22 06:49:38;;;;;;;;;1.00;0.50;;;;;16.86;70.32;101024.47;5035051;28;45373;-77
2022/10/22 06:52:04;;;;;;;;;1.00;1.00;;;;;16.88;69.99;101025.22;5033979;28;74021;-77
2022/10/22 06:54:29;;;;;;;;;1.75;1.00;;;;;16.91;69.81;101020.66;5034992;28;45402;-77
2022/10/22 06:56:55;;;;;;;;;5.00;1.00;;;;;16.93;70.00;101029.34;5033668;28;45668;-77
2022/10/22 06:59:22;;;;;;;;;1.00;1.00;;;;;16.96;69.94;101039.69;5031488;28;55908;-77
2022/10/22 07:01:48;;;;;;;;;1.00;1.00;;;;;17.01;69.98;101034.19;5024999;28;46207;-76
2022/10/22 07:04:13;;;;;;;;;1.00;1.00;;;;;17.07;69.69;101044.41;5034581;28;45361;-76
2022/10/22 07:06:38;;;;;;;;;1.00;1.00;;;;;17.11;69.83;101042.47;5027220;28;45429;-75
2022/10/22 07:09:04;;;;;;;;;4.50;0.00;;;;;17.16;69.69;101049.22;5019303;28;45496;-75
2022/10/22 07:11:37;;;;;;;;;5.00;1.00;;;;;17.22;69.57;101059.41;5034546;28;45908;-76
2022/10/22 07:14:03;;;;;;;;;4.25;2.00;;;;;17.22;69.20;101064.66;5022157;28;45323;-76
2022/10/22 07:16:28;;;;;;;;;1.25;1.00;;;;;17.21;69.04;101060.31;5035809;28;47599;-76
2022/10/22 07:18:53;;;;;;;;;3.50;1.25;;;;;17.22;69.31;101069.09;5026392;28;64018;-76
2022/10/22 07:21:20;;;;;;;;;3.00;1.00;;;;;17.21;68.95;101068.22;5037780;28;46458;-76
2022/10/22 07:23:46;;;;;;;;;2.00;1.00;;;;;17.20;68.70;101073.56;5023524;28;45367;-76
2022/10/22 07:26:13;;;;;;;;;3.00;1.25;;;;;17.20;69.03;101074.41;5030298;28;45553;-76
2022/10/22 07:28:39;;;;;;;;;2.50;1.00;;;;;17.26;68.81;101081.16;5034521;28;45569;-76
2022/10/22 07:31:06;;;;;;;;;2.75;1.00;;;;;17.31;69.13;101083.53;5034306;28;47343;-76
2022/10/22 07:33:31;;;;;;;;;3.00;1.25;;;;;17.40;68.46;101083.91;5023707;28;45658;-75
2022/10/22 07:35:58;;;;;;;;;5.50;1.00;;;;;17.52;68.21;101085.06;5038044;28;45463;-76
2022/10/22 07:38:24;;;;;;;;;1.00;1.00;;;;;17.57;68.08;101093.56;5031137;28;45627;-76
2022/10/22 07:40:49;;;;;;;;;2.00;2.00;;;;;17.65;67.67;101092.31;5034757;28;46142;-76
2022/10/22 07:43:15;;;;;;;;;2.50;1.00;;;;;17.64;67.43;101098.50;5028675;28;59773;-77
2022/10/22 07:45:40;;;;;;;;;3.75;1.00;;;;;17.59;67.73;101104.00;5033259;28;62659;-76
2022/10/22 07:48:06;;;;;;;;;2.00;0.75;;;;;17.50;67.44;101100.06;5034691;28;45465;-76
2022/10/22 07:50:31;;;;;;;;;4.25;3.00;;;;;17.45;67.75;101106.50;5030529;28;46085;-76
2022/10/22 07:52:57;;;;;;;;;3.75;1.00;;;;;17.46;67.89;101103.81;5039128;28;45369;-76
2022/10/22 07:55:22;;;;;;;;;1.00;1.00;;;;;17.40;67.59;101107.59;5025444;28;45590;-75
2022/10/22 07:57:48;;;;;;;;;0.00;0.00;;;;;17.35;68.14;101112.25;5016374;28;70169;-76
2022/10/22 08:00:13;;;;;;;;;1.50;0.50;;;;;17.32;67.95;101114.19;5016669;28;71368;-76
2022/10/22 08:02:39;;;;;;;;;0.50;0.00;;;;;17.30;67.44;101114.25;5033673;28;45390;-75
2022/10/22 08:05:05;;;;;;;;;3.75;1.00;;;;;17.21;67.71;101119.97;5029295;28;47180;-76
2022/10/22 08:07:30;;;;;;;;;5.00;0.00;;;;;17.16;67.97;101114.09;5037309;28;45305;-76
2022/10/22 08:09:55;;;;;;;;;2.00;1.00;;;;;17.16;68.07;101114.09;5022858;28;71671;-76
2022/10/22 08:12:21;;;;;;;;;3.00;1.00;;;;;17.15;68.28;101118.50;5039338;28;71534;-76
2022/10/22 08:14:46;;;;;;;;;3.00;0.25;;;;;17.13;68.33;101114.28;5035299;28;69120;-76
2022/10/22 08:17:11;;;;;;;;;2.50;2.50;;;;;17.09;68.25;101113.56;5036834;28;70176;-77
2022/10/22 08:19:36;;;;;;;;;3.00;3.00;;;;;17.08;68.36;101114.47;5036849;28;58267;-76
2022/10/22 08:22:02;;;;;;;;;4.50;2.25;;;;;17.14;68.45;101115.97;5068261;28;45363;-75
2022/10/22 08:24:27;;;;;;;;;1.00;1.00;;;;;17.21;68.49;101126.09;5056887;28;45268;-76
2022/10/22 08:26:54;;;;;;;;;2.50;1.00;;;;;17.24;68.04;101129.53;5056481;28;67559;-76
2022/10/22 08:29:22;;;;;;;;;1.75;1.75;;;;;17.28;68.28;101121.38;5051304;28;45545;-76
2022/10/22 08:31:47;;;;;;;;;1.75;1.25;;;;;17.37;68.05;101120.06;5056970;28;45625;-75
2022/10/22 08:34:12;;;;;;;;;3.00;1.25;;;;;17.43;68.13;101117.09;5056093;28;45503;-76
2022/10/22 08:36:38;;;;;;;;;1.75;1.00;;;;;17.50;67.96;101121.13;5063750;28;61930;-76
2022/10/22 08:39:03;;;;;;;;;4.00;0.25;;;;;17.53;67.87;101120.97;5070414;28;49222;-76
2022/10/22 08:41:29;;;;;;;;;2.50;1.00;;;;;17.56;67.40;101126.06;5069790;28;45532;-76
2022/10/22 08:43:54;;;;;;;;;1.25;0.75;;;;;17.60;67.42;101118.84;5062794;28;45498;-76
2022/10/22 08:46:45;;;;;;;;;2.33;1.33;;;;;17.64;66.93;101109.03;5062626;28;45453;-76
2022/10/22 08:49:22;;;;;;;;;1.50;1.00;;;;;17.66;66.76;101121.16;5058846;28;47605;-76
2022/10/22 08:51:48;;;;;;;;;2.00;1.00;;;;;17.70;67.17;101113.94;5038562;28;45427;-76
2022/10/22 08:54:22;;;;;;;;;5.00;1.00;;;;;17.77;66.80;101129.38;5037980;28;65036;-76
2022/10/22 08:56:58;;;;;;;;;1.50;1.50;;;;;17.83;66.41;101128.19;5034321;28;45395;-76
2022/10/22 08:59:36;;;;;;;;;2.00;0.75;;;;;17.89;66.85;101127.06;5038574;28;47281;-76
2022/10/22 09:02:05;;;;;;;;;3.25;1.00;;;;;17.92;66.39;101132.13;5053859;28;45917;-76
2022/10/22 09:04:36;;;;;;;;;1.00;1.00;;;;;17.92;66.64;101125.09;5063165;28;45505;-76
2022/10/22 09:07:02;;;;;;;;;2.25;1.00;;;;;17.97;66.46;101138.00;5045556;28;45482;-76
2022/10/22 09:09:31;;;;;;;;;2.75;1.00;;;;;18.01;65.81;101133.44;5020424;28;68745;-76
2022/10/22 09:11:58;;;;;;;;;1.00;1.00;;;;;18.05;66.26;101134.97;5055667;28;45750;-76
2022/10/22 09:14:25;;;;;;;;;1.00;1.00;;;;;18.11;66.26;101143.41;5034957;28;45468;-76
2022/10/22 09:16:56;;;;;;;;;7.25;0.00;;;;;18.15;65.93;101133.53;5035135;28;45305;-76
2022/10/22 09:19:29;;;;;;;;;1.25;0.00;;;;;18.21;65.79;101122.66;5035871;28;45370;-76
2022/10/22 09:22:16;;;;;;;;;2.00;1.00;;;;;18.30;65.98;101126.59;5033957;28;45652;-76
2022/10/22 09:24:46;;;;;;;;;0.00;0.00;;;;;18.36;66.08;101126.22;5056019;28;45322;-76
2022/10/22 09:27:22;;;;;;;;;1.00;1.00;;;;;18.45;65.66;101133.63;5020589;28;45376;-76
2022/10/22 09:29:48;;;;;;;;;2.00;0.75;;;;;18.52;65.41;101140.25;5034760;28;46174;-76
2022/10/22 09:32:14;;;;;;;;;2.00;1.00;;;;;18.58;65.02;101144.34;5070907;28;45573;-75
2022/10/22 09:34:39;;;;;;;;;1.50;1.00;;;;;18.58;65.02;101142.53;5064117;28;45545;-76
2022/10/22 09:37:07;;;;;;;;;1.75;1.00;;;;;18.63;64.48;101138.78;5024905;28;65655;-76
2022/10/22 09:39:37;;;;;;;;;2.00;0.50;;;;;18.69;64.59;101134.03;5057988;28;46469;-76
2022/10/22 09:42:04;;;;;;;;;1.00;1.00;;;;;18.73;64.47;101132.91;5073326;28;45396;-76
2022/10/22 09:44:32;;;;;;;;;1.00;0.00;;;;;18.78;64.37;101130.03;5076329;28;45310;-75
2022/10/22 09:46:58;;;;;;;;;5.25;1.00;;;;;18.84;64.45;101120.97;5056465;28;45280;-76
2022/10/22 09:49:23;;;;;;;;;3.50;0.00;;;;;18.90;64.07;101123.22;5040903;28;75383;-76
2022/10/22 09:51:53;;;;;;;;;3.00;0.25;;;;;18.95;63.82;101131.72;5052813;28;45986;-77
2022/10/22 09:54:37;;;;;;;;;0.00;0.00;;;;;19.00;63.32;101124.41;5034875;28;45436;-76
2022/10/22 09:57:05;;;;;;;;;1.00;0.00;;;;;19.04;63.35;101125.09;5037480;28;45568;-76
2022/10/22 09:59:32;;;;;;;;;1.00;0.00;;;;;19.13;64.07;101130.66;5041915;28;46168;-76
2022/10/22 10:02:26;;;;;;;;;0.75;0.75;;;;;19.28;63.75;101121.00;5022292;28;45858;-76
2022/10/22 10:04:56;;;;;;;;;0.00;0.00;;;;;19.42;63.16;101117.50;5058877;28;45350;-76
2022/10/22 10:07:27;;;;;;;;;2.00;1.00;;;;;19.49;62.57;101110.09;5070201;28;45310;-76
2022/10/22 10:09:53;;;;;;;;;1.25;0.00;;;;;19.56;63.07;101123.75;5027436;28;46597;-76
2022/10/22 10:12:43;;;;;;;;;2.00;1.00;;;;;19.64;62.64;101119.72;5022791;28;64794;-76
2022/10/22 10:15:27;;;;;;;;;1.75;0.00;;;;;19.73;62.45;101115.69;5048674;28;45561;-76
2022/10/22 10:18:13;;;;;;;;;0.25;0.00;;;;;19.80;61.63;101121.44;5057653;28;45548;-76
2022/10/22 10:21:05;;;;;;;;;1.50;0.25;;;;;19.83;61.22;101123.91;5068233;28;50619;-76
2022/10/22 10:23:55;;;;;;;;;3.75;0.00;;;;;19.89;61.70;101129.66;5037304;28;45680;-76
2022/10/22 10:26:47;;;;;;;;;2.50;1.00;;;;;20.08;61.48;101131.16;5055336;28;45427;-76
2022/10/22 10:29:12;;;;;;;;;0.00;0.00;;;;;20.21;60.84;101129.44;5060589;28;45537;-76
2022/10/22 10:31:56;;;;;;;;;2.25;0.00;;;;;20.31;60.67;101125.25;5068873;27;46050;-76
2022/10/22 10:34:52;;;;;;;;;2.00;0.25;;;;;20.40;59.90;101126.47;5067457;28;45410;-76
2022/10/22 10:37:38;;;;;;;;;2.00;1.00;;;;;20.52;60.29;101130.09;5063960;28;45493;-76
2022/10/22 10:40:25;;;;;;;;;1.75;1.00;;;;;20.58;58.53;101129.72;5067874;28;45488;-76
2022/10/22 10:42:57;;;;;;;;;1.00;1.00;;;;;20.59;58.42;101127.91;5070391;27;45597;-76
2022/10/22 10:45:28;;;;;;;;;5.00;0.00;;;;;20.63;58.45;101130.28;5055434;28;45488;-76
2022/10/22 10:48:21;;;;;;;;;0.75;0.00;;;;;20.72;59.55;101128.00;5077617;28;48573;-74
2022/10/22 10:50:52;;;;;;;;;0.00;0.00;;;;;20.83;58.49;101131.63;5074453;28;45572;-76
2022/10/22 10:53:51;;;;;;;;;1.00;0.00;;;;;21.01;59.23;101126.94;5061433;27;45606;-74
2022/10/22 10:56:35;;;;;;;;;1.25;0.75;;;;;21.32;58.74;101134.59;5069886;27;45659;-75
2022/10/22 10:59:15;;;;;;;;;1.00;1.00;;;;;21.63;57.76;101133.38;5067946;27;45456;-75
2022/10/22 11:02:18;;;;;;;;;1.25;0.75;;;;;21.96;57.29;101134.63;5040303;28;45728;-75
2022/10/22 11:05:45;;;;;;;;;1.50;0.50;;;;;23.08;56.82;101134.44;5059079;28;45516;-74
2022/10/22 11:08:16;;;;;;;;;1.00;0.00;;;;;24.97;54.10;101131.13;4971958;28;45796;-75
2022/10/22 11:10:45;;;;;;;;;0.75;0.00;;;;;26.50;50.23;101127.63;4973643;28;45467;-76
2022/10/22 11:13:16;;;;;;;;;0.50;0.50;;;;;27.88;46.42;101131.81;4995968;28;45523;-74
2022/10/22 11:15:46;;;;;;;;;1.00;0.00;;;;;29.18;43.69;101125.31;4979210;28;45379;-76
2022/10/22 11:18:28;;;;;;;;;1.00;1.00;;;;;29.94;39.47;101140.72;4978924;28;45393;-75
2022/10/22 11:21:11;;;;;;;;;1.00;0.00;;;;;29.44;40.10;101136.91;4993350;28;45367;-75
2022/10/22 11:24:07;;;;;;;;;0.00;0.00;;;;;28.60;41.87;101140.06;4980302;28;45379;-75
2022/10/22 11:26:38;;;;;;;;;0.50;0.00;;;;;29.29;42.23;101136.66;4977407;28;48575;-76
2022/10/22 11:29:12;;;;;;;;;2.00;1.00;;;;;30.21;37.97;101134.25;4986460;28;46065;-76
2022/10/22 11:31:38;;;;;;;;;1.25;0.50;;;;;30.94;37.45;101131.88;4974266;28;45502;-77
2022/10/22 11:34:08;;;;;;;;;0.75;0.75;;;;;31.21;35.49;101134.22;4987084;28;70711;-76